Time;durP1;ratioP1;P1;durP2;ratioP2;P2;SDS_P1;SDS_P2;PMS_P1;PMS_P2;Temp;Humidity;BMP_temperature;BMP_pressure;BME280_temperature;BME280_humidity;BME280_pressure;Samples;Min_cycle;Max_cycle;Signal;HPM_P1;HPM_P2
2021/07/02 00:01:01;;;;;;;5.20;3.65;;;;;21.40;101487.00;;;;5072861;28;20243;-78
2021/07/02 00:03:28;;;;;;;5.88;3.75;;;;;21.40;101491.00;;;;5067494;28;20195;-78
2021/07/02 00:05:55;;;;;;;7.57;4.07;;;;;21.40;101486.00;;;;5069141;28;20198;-77
2021/07/02 00:08:26;;;;;;;7.38;4.00;;;;;21.30;101485.00;;;;5067953;28;20198;-78
2021/07/02 00:10:54;;;;;;;5.72;3.85;;;;;21.30;101483.00;;;;5068318;28;20195;-78
2021/07/02 00:13:22;;;;;;;5.93;3.97;;;;;21.30;101486.00;;;;5067887;28;20199;-77
2021/07/02 00:15:49;;;;;;;6.13;3.83;;;;;21.30;101485.00;;;;5067610;28;21001;-78
2021/07/02 00:18:16;;;;;;;4.38;3.70;;;;;21.30;101488.00;;;;5076737;28;20208;-77
2021/07/02 00:20:44;;;;;;;5.78;4.03;;;;;21.30;101484.00;;;;5067331;28;20199;-77
2021/07/02 00:23:11;;;;;;;6.25;4.28;;;;;21.30;101484.00;;;;5068077;28;20199;-78
2021/07/02 00:25:40;;;;;;;10.45;4.93;;;;;21.30;101488.00;;;;5067113;28;20195;-78
2021/07/02 00:28:07;;;;;;;6.97;4.05;;;;;21.30;101483.00;;;;5073342;28;20210;-78
2021/07/02 00:30:35;;;;;;;5.45;4.25;;;;;21.30;101484.00;;;;5079208;28;20191;-78
2021/07/02 00:33:03;;;;;;;5.97;4.05;;;;;21.30;101482.00;;;;5069087;28;20720;-78
2021/07/02 00:35:30;;;;;;;7.18;3.35;;;;;21.30;101480.00;;;;5068298;28;20214;-78
2021/07/02 00:37:57;;;;;;;7.28;4.07;;;;;21.30;101482.00;;;;5067664;28;20223;-78
2021/07/02 00:40:25;;;;;;;6.47;3.72;;;;;21.30;101479.00;;;;5069131;28;20661;-78
2021/07/02 00:42:53;;;;;;;4.75;3.90;;;;;21.30;101476.00;;;;5088451;28;20202;-77
2021/07/02 00:45:20;;;;;;;8.27;4.50;;;;;21.30;101479.00;;;;5071354;28;20270;-78
2021/07/02 00:47:48;;;;;;;5.60;4.15;;;;;21.30;101481.00;;;;5070755;28;20252;-77
2021/07/02 00:50:15;;;;;;;7.25;3.85;;;;;21.30;101477.00;;;;5076944;28;20198;-77
2021/07/02 00:52:43;;;;;;;5.55;3.90;;;;;21.30;101473.00;;;;5073583;28;20191;-78
2021/07/02 00:55:11;;;;;;;6.28;3.97;;;;;21.30;101470.00;;;;5078449;28;20203;-78
2021/07/02 00:57:39;;;;;;;6.45;3.67;;;;;21.30;101472.00;;;;5071405;28;20218;-78
2021/07/02 01:00:10;;;;;;;10.00;4.13;;;;;21.30;101477.00;;;;5073333;28;21911;-78
2021/07/02 01:02:37;;;;;;;6.22;4.10;;;;;21.30;101477.00;;;;5082901;28;20251;-78
2021/07/02 01:05:06;;;;;;;6.13;3.65;;;;;21.30;101471.00;;;;5080293;28;20208;-78
2021/07/02 01:07:34;;;;;;;8.02;4.30;;;;;21.30;101470.00;;;;5070802;28;20199;-78
2021/07/02 01:10:01;;;;;;;4.57;3.42;;;;;21.30;101470.00;;;;5078934;28;20196;-78
2021/07/02 01:12:29;;;;;;;7.40;3.53;;;;;21.30;101471.00;;;;5070733;28;20240;-78
2021/07/02 01:14:56;;;;;;;5.68;4.00;;;;;21.30;101471.00;;;;5071684;28;20607;-77
2021/07/02 01:17:25;;;;;;;9.98;3.13;;;;;21.30;101473.00;;;;5085266;28;20219;-78
2021/07/02 01:19:54;;;;;;;6.07;3.75;;;;;21.30;101470.00;;;;5074214;28;20195;-78
2021/07/02 01:22:25;;;;;;;11.45;4.15;;;;;21.30;101472.00;;;;5070813;28;20664;-78
2021/07/02 01:24:53;;;;;;;5.78;4.20;;;;;21.30;101474.00;;;;5077570;28;20202;-78
2021/07/02 01:27:21;;;;;;;5.60;4.15;;;;;21.20;101471.00;;;;5070506;28;20206;-78
2021/07/02 01:29:49;;;;;;;8.55;3.42;;;;;21.20;101471.00;;;;5069742;28;20187;-78
2021/07/02 01:32:17;;;;;;;6.60;4.53;;;;;21.20;101468.00;;;;5069769;28;20229;-78
2021/07/02 01:34:45;;;;;;;7.63;3.42;;;;;21.20;101465.00;;;;5085557;28;20198;-78
2021/07/02 01:37:12;;;;;;;6.65;4.78;;;;;21.20;101461.00;;;;5070317;28;20283;-77
2021/07/02 01:39:41;;;;;;;7.32;4.28;;;;;21.20;101460.00;;;;5069241;28;20202;-78
2021/07/02 01:42:09;;;;;;;6.65;4.78;;;;;21.30;101466.00;;;;5082511;28;20913;-77
2021/07/02 01:44:36;;;;;;;6.53;4.03;;;;;21.20;101457.00;;;;5070644;28;20192;-78
2021/07/02 01:47:04;;;;;;;7.18;5.03;;;;;21.20;101470.00;;;;5070052;28;20208;-78
2021/07/02 01:49:31;;;;;;;8.60;4.93;;;;;21.20;101465.00;;;;5082536;28;20198;-78
2021/07/02 01:51:59;;;;;;;7.93;4.75;;;;;21.20;101460.00;;;;5081156;28;20199;-78
2021/07/02 01:54:26;;;;;;;10.23;4.97;;;;;21.20;101460.00;;;;5068971;28;20202;-78
2021/07/02 01:56:54;;;;;;;5.13;4.35;;;;;21.20;101452.00;;;;5069435;28;20229;-78
2021/07/02 01:59:22;;;;;;;7.45;4.22;;;;;21.20;101457.00;;;;5082947;28;20202;-78
2021/07/02 02:01:50;;;;;;;5.72;3.97;;;;;21.20;101447.00;;;;5083793;28;20218;-78
2021/07/02 02:04:19;;;;;;;9.65;5.00;;;;;21.10;101457.00;;;;5081345;28;20288;-78
2021/07/02 02:06:46;;;;;;;7.45;4.72;;;;;21.20;101455.00;;;;5072897;28;20360;-78
2021/07/02 02:09:13;;;;;;;8.30;5.47;;;;;21.20;101458.00;;;;5088756;28;20206;-78
2021/07/02 02:11:41;;;;;;;9.02;4.75;;;;;21.20;101459.00;;;;5088895;28;20198;-78
2021/07/02 02:14:10;;;;;;;6.20;4.95;;;;;21.10;101451.00;;;;5081788;28;20190;-78
2021/07/02 02:16:38;;;;;;;13.00;6.05;;;;;21.10;101447.00;;;;5072267;28;20624;-78
2021/07/02 02:19:06;;;;;;;9.23;5.43;;;;;21.10;101450.00;;;;5071609;28;20218;-78
2021/07/02 02:21:33;;;;;;;8.52;4.60;;;;;21.10;101450.00;;;;5069792;28;20214;-78
2021/07/02 02:24:00;;;;;;;4.32;3.78;;;;;21.10;101436.00;;;;5068817;28;20191;-78
2021/07/02 02:26:28;;;;;;;8.70;5.03;;;;;21.10;101438.00;;;;5068731;28;20553;-78
2021/07/02 02:28:55;;;;;;;8.45;5.38;;;;;21.10;101440.00;;;;5068726;28;20199;-78
2021/07/02 02:31:24;;;;;;;5.63;4.55;;;;;21.10;101434.00;;;;5080188;28;20202;-77
2021/07/02 02:33:51;;;;;;;9.55;5.03;;;;;21.10;101433.00;;;;5071000;28;20222;-78
2021/07/02 02:36:18;;;;;;;8.50;5.35;;;;;21.10;101433.00;;;;5070077;28;20198;-78
2021/07/02 02:38:46;;;;;;;6.70;4.70;;;;;21.10;101435.00;;;;5068454;28;20227;-78
2021/07/02 02:41:13;;;;;;;6.75;4.60;;;;;21.10;101445.00;;;;5069341;28;20194;-78
2021/07/02 02:43:40;;;;;;;9.90;4.85;;;;;21.10;101447.00;;;;5068882;28;20190;-78
2021/07/02 02:46:07;;;;;;;8.70;4.95;;;;;21.10;101444.00;;;;5070094;28;20206;-77
2021/07/02 02:48:36;;;;;;;8.68;5.20;;;;;21.10;101439.00;;;;5068586;28;20187;-78
2021/07/02 02:51:04;;;;;;;7.10;4.88;;;;;21.10;101442.00;;;;5069858;28;20210;-78
2021/07/02 02:53:31;;;;;;;6.95;5.25;;;;;21.10;101443.00;;;;5068353;28;20719;-78
2021/07/02 02:55:58;;;;;;;5.22;4.13;;;;;21.10;101440.00;;;;5069998;28;20198;-78
2021/07/02 02:58:25;;;;;;;8.27;4.60;;;;;21.10;101434.00;;;;5070963;28;20993;-78
2021/07/02 03:00:52;;;;;;;6.38;5.30;;;;;21.10;101439.00;;;;5074584;28;20217;-78
2021/07/02 03:03:20;;;;;;;8.35;4.75;;;;;21.10;101432.00;;;;5077659;28;20197;-78
2021/07/02 03:05:49;;;;;;;6.10;4.93;;;;;21.10;101430.00;;;;5075989;28;20728;-78
2021/07/02 03:08:16;;;;;;;7.28;5.03;;;;;21.10;101424.00;;;;5068973;28;20202;-78
2021/07/02 03:10:43;;;;;;;9.85;4.82;;;;;21.10;101428.00;;;;5088246;28;20198;-78
2021/07/02 03:13:11;;;;;;;8.02;4.60;;;;;21.10;101423.00;;;;5070377;28;20203;-78
2021/07/02 03:15:38;;;;;;;9.27;5.07;;;;;21.10;101426.00;;;;5071906;28;20237;-78
2021/07/02 03:18:05;;;;;;;8.90;4.53;;;;;21.10;101431.00;;;;5074297;28;20214;-78
2021/07/02 03:20:32;;;;;;;8.02;5.32;;;;;21.10;101428.00;;;;5084695;28;20186;-78
2021/07/02 03:23:01;;;;;;;8.02;4.40;;;;;21.00;101439.00;;;;5068908;28;20190;-78
2021/07/02 03:25:28;;;;;;;7.47;4.63;;;;;21.10;101432.00;;;;5074776;28;20205;-78
2021/07/02 03:27:55;;;;;;;6.38;4.22;;;;;21.00;101440.00;;;;5081999;28;20207;-79
2021/07/02 03:30:23;;;;;;;7.53;4.60;;;;;21.10;101442.00;;;;5072323;28;20198;-79
2021/07/02 03:32:50;;;;;;;6.88;4.57;;;;;21.00;101437.00;;;;5067960;28;20225;-80
2021/07/02 03:35:18;;;;;;;6.40;4.35;;;;;21.10;101441.00;;;;5068516;28;20549;-79
2021/07/02 03:37:45;;;;;;;6.35;4.43;;;;;21.00;101446.00;;;;5068078;28;20230;-79
2021/07/02 03:40:14;;;;;;;6.15;4.35;;;;;21.00;101441.00;;;;5068283;28;20202;-79
2021/07/02 03:42:41;;;;;;;8.02;4.60;;;;;21.00;101452.00;;;;5068823;28;20191;-79
2021/07/02 03:45:10;;;;;;;8.63;4.93;;;;;21.00;101447.00;;;;5068173;28;20692;-79
2021/07/02 03:47:37;;;;;;;7.10;4.38;;;;;21.00;101448.00;;;;5068501;28;20187;-78
2021/07/02 03:50:05;;;;;;;9.38;4.53;;;;;21.00;101451.00;;;;5084516;28;20190;-78
2021/07/02 03:52:32;;;;;;;8.18;4.80;;;;;21.00;101448.00;;;;5068326;28;20203;-78
2021/07/02 03:55:00;;;;;;;8.52;5.63;;;;;21.00;101453.00;;;;5068414;28;20653;-78
2021/07/02 03:57:28;;;;;;;10.60;5.38;;;;;21.00;101456.00;;;;5069958;28;20253;-79
2021/07/02 03:59:56;;;;;;;5.97;4.15;;;;;21.00;101463.00;;;;5070436;28;20207;-79
2021/07/02 04:02:23;;;;;;;6.68;4.25;;;;;21.00;101457.00;;;;5075647;28;20206;-79
2021/07/02 04:04:50;;;;;;;9.40;5.25;;;;;21.00;101465.00;;;;5071179;28;20260;-79
2021/07/02 04:07:17;;;;;;;10.00;4.93;;;;;21.00;101461.00;;;;5067508;28;20241;-79
2021/07/02 04:09:45;;;;;;;8.20;4.28;;;;;21.00;101463.00;;;;5067161;28;20202;-79
2021/07/02 04:12:13;;;;;;;6.63;4.68;;;;;21.00;101475.00;;;;5067792;28;20214;-79
2021/07/02 04:14:44;;;;;;;12.18;5.80;;;;;21.00;101466.00;;;;5072343;28;20199;-79
2021/07/02 04:17:11;;;;;;;10.75;5.35;;;;;21.00;101467.00;;;;5076463;28;20205;-79
2021/07/02 04:19:38;;;;;;;8.98;5.25;;;;;21.00;101469.00;;;;5074945;28;20193;-79
2021/07/02 04:22:06;;;;;;;7.78;4.95;;;;;21.00;101468.00;;;;5072612;28;20194;-79
2021/07/02 04:24:34;;;;;;;7.22;5.22;;;;;21.00;101474.00;;;;5070628;28;20194;-79
2021/07/02 04:27:01;;;;;;;12.13;5.00;;;;;21.00;101469.00;;;;5073507;28;20269;-79
2021/07/02 04:29:29;;;;;;;7.90;5.18;;;;;21.00;101472.00;;;;5073879;28;20198;-79
2021/07/02 04:31:57;;;;;;;7.50;5.13;;;;;21.00;101473.00;;;;5081487;28;20198;-80
2021/07/02 04:34:25;;;;;;;10.18;6.15;;;;;21.00;101471.00;;;;5086344;28;20206;-79
2021/07/02 04:36:52;;;;;;;6.40;5.15;;;;;21.00;101477.00;;;;5087503;28;20198;-80
2021/07/02 04:39:21;;;;;;;7.43;5.47;;;;;21.00;101471.00;;;;5085502;28;20591;-80
2021/07/02 04:41:49;;;;;;;7.88;5.07;;;;;21.00;101470.00;;;;5089155;28;20190;-80
2021/07/02 04:44:16;;;;;;;9.35;4.82;;;;;21.00;101469.00;;;;5090272;28;20202;-79
2021/07/02 04:46:43;;;;;;;9.18;5.78;;;;;21.00;101469.00;;;;5085787;28;20198;-78
2021/07/02 04:49:12;;;;;;;7.28;5.22;;;;;21.00;101466.00;;;;5084659;28;20195;-78
2021/07/02 04:51:39;;;;;;;10.60;5.75;;;;;21.00;101465.00;;;;5089678;28;20187;-78
2021/07/02 04:54:06;;;;;;;7.15;4.75;;;;;21.00;101466.00;;;;5089723;28;20190;-78
2021/07/02 04:56:34;;;;;;;7.38;5.63;;;;;21.00;101466.00;;;;5088070;28;20186;-78
2021/07/02 04:59:01;;;;;;;11.60;5.53;;;;;21.00;101465.00;;;;5087991;28;20222;-78
2021/07/02 05:01:29;;;;;;;8.77;6.40;;;;;21.00;101467.00;;;;5080781;28;20585;-78
2021/07/02 05:03:56;;;;;;;6.78;5.30;;;;;21.00;101465.00;;;;5077095;28;20207;-78
2021/07/02 05:06:24;;;;;;;8.88;5.00;;;;;21.00;101465.00;;;;5085577;28;20194;-76
2021/07/02 05:08:52;;;;;;;9.27;5.80;;;;;21.00;101458.00;;;;5087590;28;20209;-77
2021/07/02 05:11:19;;;;;;;8.65;5.57;;;;;21.00;101465.00;;;;5084159;28;20235;-77
2021/07/02 05:13:46;;;;;;;11.57;5.82;;;;;21.00;101457.00;;;;5073995;28;20218;-78
2021/07/02 05:16:13;;;;;;;9.32;5.18;;;;;21.00;101462.00;;;;5079478;28;20190;-78
2021/07/02 05:18:40;;;;;;;7.05;5.13;;;;;21.00;101453.00;;;;5084995;28;20607;-78
2021/07/02 05:21:08;;;;;;;6.50;4.85;;;;;21.10;101470.00;;;;5072267;28;20691;-78
2021/07/02 05:23:36;;;;;;;11.25;5.88;;;;;21.10;101459.00;;;;5087262;28;20648;-78
2021/07/02 05:26:04;;;;;;;8.00;5.03;;;;;21.10;101460.00;;;;5079113;28;20210;-78
2021/07/02 05:28:33;;;;;;;7.57;4.85;;;;;21.10;101468.00;;;;5082865;28;20202;-78
2021/07/02 05:31:00;;;;;;;9.82;5.72;;;;;21.10;101461.00;;;;5079633;28;20198;-78
2021/07/02 05:33:27;;;;;;;8.95;5.40;;;;;21.10;101456.00;;;;5086381;28;20225;-78
2021/07/02 05:35:55;;;;;;;8.40;4.88;;;;;21.20;101467.00;;;;5071210;28;20196;-78
2021/07/02 05:38:22;;;;;;;6.95;4.85;;;;;21.20;101463.00;;;;5070716;28;20499;-78
2021/07/02 05:40:54;;;;;;;8.45;5.05;;;;;21.20;101462.00;;;;5073390;28;20199;-79
2021/07/02 05:43:22;;;;;;;8.05;5.03;;;;;21.20;101468.00;;;;5070885;28;20226;-78
2021/07/02 05:45:49;;;;;;;7.75;5.65;;;;;21.30;101476.00;;;;5070391;28;20199;-77
2021/07/02 05:48:18;;;;;;;9.60;5.65;;;;;21.30;101468.00;;;;5072518;28;20206;-77
2021/07/02 05:50:46;;;;;;;10.15;5.07;;;;;21.30;101471.00;;;;5077823;28;20928;-78
2021/07/02 05:53:13;;;;;;;8.77;5.60;;;;;21.30;101471.00;;;;5090808;28;20190;-78
2021/07/02 05:55:41;;;;;;;7.65;5.53;;;;;21.30;101466.00;;;;5073102;28;20203;-78
2021/07/02 05:58:09;;;;;;;9.90;5.47;;;;;21.40;101480.00;;;;5070850;28;20218;-78
2021/07/02 06:00:36;;;;;;;7.75;5.35;;;;;21.40;101474.00;;;;5071359;28;21770;-77
2021/07/02 06:03:04;;;;;;;8.43;5.40;;;;;21.40;101480.00;;;;5074770;28;20560;-78
2021/07/02 06:05:32;;;;;;;9.20;4.82;;;;;21.40;101485.00;;;;5077861;28;20203;-79
2021/07/02 06:07:59;;;;;;;9.23;5.15;;;;;21.50;101488.00;;;;5071117;28;20203;-80
2021/07/02 06:10:27;;;;;;;8.05;5.32;;;;;21.50;101490.00;;;;5068040;28;20213;-79
2021/07/02 06:12:55;;;;;;;7.13;4.82;;;;;21.50;101494.00;;;;5069636;28;20210;-80
2021/07/02 06:15:24;;;;;;;8.65;5.25;;;;;21.50;101497.00;;;;5070049;28;20238;-80
2021/07/02 06:17:53;;;;;;;10.95;5.65;;;;;21.60;101490.00;;;;5069904;28;20202;-80
2021/07/02 06:20:24;;;;;;;8.43;5.47;;;;;21.60;101494.00;;;;5069492;28;20248;-80
2021/07/02 06:22:52;;;;;;;7.72;5.45;;;;;21.60;101497.00;;;;5069344;28;20203;-80
2021/07/02 06:25:19;;;;;;;10.13;6.13;;;;;21.60;101494.00;;;;5069063;28;20584;-80
2021/07/02 06:27:46;;;;;;;6.72;5.15;;;;;21.70;101492.00;;;;5069181;28;21066;-80
2021/07/02 06:30:15;;;;;;;8.77;5.25;;;;;21.70;101498.00;;;;5069302;28;20199;-80
2021/07/02 06:32:44;;;;;;;12.20;6.72;;;;;21.70;101500.00;;;;5069091;28;20238;-80
2021/07/02 06:35:12;;;;;;;10.70;6.10;;;;;21.70;101504.00;;;;5068759;28;20195;-80
2021/07/02 06:37:39;;;;;;;10.77;6.18;;;;;21.70;101505.00;;;;5068062;28;20187;-80
2021/07/02 06:40:08;;;;;;;10.98;5.72;;;;;21.70;101503.00;;;;5069273;28;20658;-80
2021/07/02 06:42:35;;;;;;;7.43;5.50;;;;;21.70;101507.00;;;;5068858;28;20203;-80
2021/07/02 06:45:02;;;;;;;7.00;5.40;;;;;21.70;101503.00;;;;5068581;28;20221;-80
2021/07/02 06:47:30;;;;;;;10.15;5.95;;;;;21.70;101500.00;;;;5068590;28;20202;-80
2021/07/02 06:49:58;;;;;;;11.07;7.00;;;;;21.70;101501.00;;;;5069276;28;20195;-80
2021/07/02 06:52:25;;;;;;;8.18;5.95;;;;;21.70;101504.00;;;;5068650;28;20199;-80
2021/07/02 06:54:52;;;;;;;9.45;6.07;;;;;21.80;101509.00;;;;5069375;28;20198;-80
2021/07/02 06:57:20;;;;;;;9.00;5.78;;;;;21.80;101512.00;;;;5068705;28;20206;-80
2021/07/02 06:59:47;;;;;;;8.18;5.68;;;;;21.80;101513.00;;;;5068441;28;20238;-80
2021/07/02 07:02:14;;;;;;;10.02;6.30;;;;;21.80;101519.00;;;;5088586;28;20210;-79
2021/07/02 07:04:42;;;;;;;7.95;5.68;;;;;21.80;101513.00;;;;5072345;28;20213;-80
2021/07/02 07:07:11;;;;;;;7.97;5.82;;;;;21.90;101512.00;;;;5068314;28;20685;-79
2021/07/02 07:09:38;;;;;;;10.35;6.28;;;;;21.90;101514.00;;;;5068788;28;20257;-79
2021/07/02 07:12:06;;;;;;;9.43;5.45;;;;;21.90;101517.00;;;;5070654;28;20198;-79
2021/07/02 07:14:34;;;;;;;7.00;5.38;;;;;21.90;101520.00;;;;5089292;28;20198;-79
2021/07/02 07:17:04;;;;;;;8.40;5.90;;;;;22.00;101513.00;;;;5089302;28;20194;-79
2021/07/02 07:19:31;;;;;;;8.18;5.55;;;;;22.00;101521.00;;;;5077859;28;20223;-79
2021/07/02 07:21:59;;;;;;;8.50;5.65;;;;;22.00;101512.00;;;;5068961;28;20225;-79
2021/07/02 07:24:27;;;;;;;7.75;5.82;;;;;22.10;101512.00;;;;5068045;28;20199;-79
2021/07/02 07:26:54;;;;;;;8.32;5.15;;;;;22.10;101513.00;;;;5069945;28;20198;-78
2021/07/02 07:29:22;;;;;;;6.75;5.30;;;;;22.10;101516.00;;;;5068969;28;20198;-79
2021/07/02 07:31:49;;;;;;;7.20;4.95;;;;;22.10;101519.00;;;;5077164;28;20202;-81
2021/07/02 07:34:25;;;;;;;8.65;5.00;;;;;22.20;101527.00;;;;5088363;28;20213;-79
2021/07/02 07:36:54;;;;;;;7.85;5.82;;;;;22.20;101517.00;;;;5076150;28;20201;-79
2021/07/02 07:39:22;;;;;;;6.82;5.13;;;;;22.20;101524.00;;;;5077495;28;20223;-80
2021/07/02 07:41:50;;;;;;;7.45;4.95;;;;;22.20;101527.00;;;;5088172;28;20202;-80
2021/07/02 07:44:17;;;;;;;7.80;5.68;;;;;22.20;101526.00;;;;5087789;28;20203;-80
2021/07/02 07:46:45;;;;;;;8.60;5.47;;;;;22.20;101532.00;;;;5088109;28;20213;-80
2021/07/02 07:49:12;;;;;;;7.97;5.57;;;;;22.20;101528.00;;;;5090632;28;20198;-80
2021/07/02 07:51:45;;;;;;;7.32;5.68;;;;;22.20;101530.00;;;;5092758;28;20214;-80
2021/07/02 07:54:12;;;;;;;8.02;6.28;;;;;22.30;101530.00;;;;5073483;28;20198;-80
2021/07/02 07:56:49;;;;;;;8.90;6.47;;;;;22.30;101527.00;;;;5072951;28;20206;-80
2021/07/02 07:59:19;;;;;;;7.72;5.40;;;;;22.30;101537.00;;;;5073561;28;20274;-80
2021/07/02 08:01:46;;;;;;;6.78;5.70;;;;;22.40;101523.00;;;;5091833;28;20213;-80
2021/07/02 08:04:14;;;;;;;10.55;5.85;;;;;22.40;101526.00;;;;5092893;28;20194;-80
2021/07/02 08:06:43;;;;;;;8.27;5.35;;;;;22.40;101538.00;;;;5072393;28;20206;-79
2021/07/02 08:09:11;;;;;;;9.13;6.22;;;;;22.40;101543.00;;;;5072756;28;20669;-80
2021/07/02 08:11:38;;;;;;;11.43;6.22;;;;;22.40;101547.00;;;;5072135;28;20202;-80
2021/07/02 08:14:06;;;;;;;9.68;6.55;;;;;22.40;101547.00;;;;5072961;28;20194;-80
2021/07/02 08:16:35;;;;;;;13.55;8.07;;;;;22.40;101557.00;;;;5079834;28;20206;-79
2021/07/02 08:19:03;;;;;;;11.77;7.65;;;;;22.40;101558.00;;;;5075668;28;20222;-79
2021/07/02 08:21:31;;;;;;;11.40;8.25;;;;;22.40;101553.00;;;;5080009;28;20201;-80
2021/07/02 08:23:58;;;;;;;9.05;7.47;;;;;22.40;101557.00;;;;5084353;28;20675;-80
2021/07/02 08:26:27;;;;;;;9.88;7.45;;;;;22.40;101561.00;;;;5085132;28;20569;-81
2021/07/02 08:31:40;;;;;;;12.40;7.82;;;;;22.40;101558.00;;;;5087239;28;20202;-80
2021/07/02 08:34:07;;;;;;;11.85;7.07;;;;;22.40;101564.00;;;;5071426;28;20230;-80
2021/07/02 08:36:34;;;;;;;13.00;7.93;;;;;22.40;101559.00;;;;5071462;28;20191;-80
2021/07/02 08:39:03;;;;;;;14.63;6.78;;;;;22.40;101557.00;;;;5087149;28;20225;-81
2021/07/02 08:41:30;;;;;;;9.75;7.78;;;;;22.40;101562.00;;;;5089198;28;20190;-80
2021/07/02 08:43:57;;;;;;;10.50;7.07;;;;;22.40;101565.00;;;;5075443;28;20205;-81
2021/07/02 08:46:26;;;;;;;10.63;7.57;;;;;22.40;101569.00;;;;5075647;28;20195;-81
2021/07/02 08:48:54;;;;;;;9.77;6.78;;;;;22.40;101568.00;;;;5073620;28;20207;-81
2021/07/02 08:51:24;;;;;;;10.35;6.72;;;;;22.40;101571.00;;;;5070982;28;20673;-80
2021/07/02 08:53:52;;;;;;;10.95;6.90;;;;;22.50;101572.00;;;;5073782;28;20194;-80
2021/07/02 08:56:20;;;;;;;8.02;6.30;;;;;22.50;101566.00;;;;5072188;28;20565;-80
2021/07/02 08:58:47;;;;;;;9.45;6.82;;;;;22.50;101566.00;;;;5082365;28;20210;-82
2021/07/02 09:01:46;;;;;;;12.02;6.55;;;;;22.40;101565.00;;;;5078256;28;20214;-81
2021/07/02 09:04:19;;;;;;;9.63;6.97;;;;;22.50;101569.00;;;;5086161;28;20230;-81
2021/07/02 09:07:00;;;;;;;11.50;7.63;;;;;22.40;101570.00;;;;5071548;28;20203;-80
2021/07/02 09:09:46;;;;;;;14.05;7.97;;;;;22.40;101570.00;;;;5078926;28;20195;-80
2021/07/02 09:12:14;;;;;;;10.90;7.63;;;;;22.50;101571.00;;;;5071072;28;20205;-80
2021/07/02 09:14:55;;;;;;;13.63;8.45;;;;;22.50;101572.00;;;;5078111;28;20242;-81
2021/07/02 09:17:24;;;;;;;14.18;7.85;;;;;22.60;101579.00;;;;5086702;28;20215;-81
2021/07/02 09:20:09;;;;;;;13.00;8.73;;;;;22.40;101576.00;;;;5070408;28;20223;-81
2021/07/02 09:22:48;;;;;;;12.35;8.13;;;;;22.50;101583.00;;;;5073263;28;20645;-80
2021/07/02 09:25:25;;;;;;;11.27;7.60;;;;;22.50;101589.00;;;;5071042;28;20534;-80
2021/07/02 09:27:54;;;;;;;10.80;7.28;;;;;22.50;101589.00;;;;5071260;28;20199;-80
2021/07/02 09:30:23;;;;;;;13.90;7.68;;;;;22.50;101596.00;;;;5075406;28;20206;-80
2021/07/02 09:32:52;;;;;;;13.02;9.70;;;;;22.50;101589.00;;;;5079073;28;20317;-81
2021/07/02 09:35:24;;;;;;;12.80;8.52;;;;;22.50;101591.00;;;;5079729;28;20732;-81
2021/07/02 09:37:56;;;;;;;10.70;7.72;;;;;22.60;101600.00;;;;5071202;28;20211;-81
2021/07/02 09:40:26;;;;;;;11.05;6.85;;;;;22.50;101601.00;;;;5082263;28;20223;-80
2021/07/02 09:43:00;;;;;;;13.02;7.85;;;;;22.50;101605.00;;;;5075091;28;20198;-81
2021/07/02 09:45:28;;;;;;;11.13;7.43;;;;;22.50;101605.00;;;;5069915;28;20197;-80
2021/07/02 09:47:56;;;;;;;10.43;7.10;;;;;22.50;101604.00;;;;5072929;28;20626;-81
2021/07/02 09:50:27;;;;;;;9.73;6.60;;;;;22.50;101607.00;;;;5071891;28;20203;-81
2021/07/02 09:52:57;;;;;;;7.90;6.32;;;;;22.50;101619.00;;;;5070040;28;20576;-81
2021/07/02 09:55:26;;;;;;;12.20;7.75;;;;;22.60;101617.00;;;;5077484;28;20214;-80
2021/07/02 09:58:08;;;;;;;10.68;7.03;;;;;22.50;101619.00;;;;5071446;28;20199;-80
2021/07/02 10:00:39;;;;;;;11.57;7.22;;;;;22.50;101609.00;;;;5079346;28;20225;-80
2021/07/02 10:03:07;;;;;;;12.43;8.45;;;;;22.60;101615.00;;;;5105850;28;20199;-79
2021/07/02 10:05:48;;;;;;;12.02;8.23;;;;;22.50;101616.00;;;;5076930;28;20248;-79
2021/07/02 10:08:16;;;;;;;11.05;7.03;;;;;22.60;101622.00;;;;5070307;28;20194;-80
2021/07/02 10:10:44;;;;;;;10.60;7.05;;;;;22.60;101629.00;;;;5068932;28;20209;-80
2021/07/02 10:13:12;;;;;;;9.60;6.32;;;;;22.60;101628.00;;;;5069004;28;20207;-80
2021/07/02 10:15:42;;;;;;;9.88;6.32;;;;;22.60;101624.00;;;;5069148;28;20562;-80
2021/07/02 10:18:13;;;;;;;13.43;7.68;;;;;22.60;101630.00;;;;5076699;28;20286;-80
2021/07/02 10:20:42;;;;;;;10.23;8.00;;;;;22.70;101632.00;;;;5069268;28;20222;-80
2021/07/02 10:23:12;;;;;;;10.38;7.18;;;;;22.70;101636.00;;;;5069722;28;20272;-80
2021/07/02 10:25:43;;;;;;;11.48;7.22;;;;;22.70;101630.00;;;;5068187;28;20207;-82
2021/07/02 10:28:12;;;;;;;12.95;8.52;;;;;22.80;101631.00;;;;5069280;28;20551;-80
2021/07/02 10:30:41;;;;;;;11.07;7.45;;;;;22.80;101633.00;;;;5080331;28;20667;-80
2021/07/02 10:33:09;;;;;;;12.23;8.07;;;;;22.80;101637.00;;;;5072736;28;20237;-80
2021/07/02 10:35:40;;;;;;;12.45;8.02;;;;;22.90;101639.00;;;;5071338;28;20688;-80
2021/07/02 10:38:09;;;;;;;15.60;9.00;;;;;22.90;101633.00;;;;5067185;28;20241;-80
2021/07/02 10:40:40;;;;;;;13.50;8.63;;;;;23.00;101637.00;;;;5068215;28;20581;-80
2021/07/02 10:43:09;;;;;;;15.00;9.13;;;;;23.00;101634.00;;;;5069198;28;20199;-79
2021/07/02 10:45:38;;;;;;;15.07;9.77;;;;;23.00;101630.00;;;;5069740;28;20203;-80
2021/07/02 10:48:06;;;;;;;11.00;8.80;;;;;23.10;101630.00;;;;5070081;28;20206;-80
2021/07/02 10:50:44;;;;;;;12.30;7.90;;;;;23.10;101638.00;;;;5068636;28;20202;-80
2021/07/02 10:53:30;;;;;;;10.80;7.82;;;;;23.10;101633.00;;;;5069171;28;20203;-79
2021/07/02 10:55:58;;;;;;;11.20;7.70;;;;;23.30;101637.00;;;;5073305;28;20289;-80
2021/07/02 10:58:40;;;;;;;12.35;7.93;;;;;23.30;101632.00;;;;5089539;28;20194;-80
2021/07/02 11:01:09;;;;;;;9.80;6.82;;;;;23.40;101640.00;;;;5084985;28;20218;-80
2021/07/02 11:03:36;;;;;;;9.20;6.95;;;;;23.50;101631.00;;;;5077334;28;20202;-80
2021/07/02 11:06:41;;;;;;;9.80;7.10;;;;;23.40;101625.00;;;;5089342;28;20232;-80
2021/07/02 11:09:10;;;;;;;10.85;7.38;;;;;23.60;101632.00;;;;5089341;28;20210;-80
2021/07/02 11:12:07;;;;;;;10.30;7.35;;;;;23.60;101638.00;;;;5088432;28;20209;-80
2021/07/02 11:14:58;;;;;;;9.35;6.53;;;;;23.80;101644.00;;;;5088619;28;20205;-81
2021/07/02 11:17:27;;;;;;;8.68;6.20;;;;;23.80;101642.00;;;;5089021;28;20198;-81
2021/07/02 11:20:31;;;;;;;9.57;6.32;;;;;23.80;101641.00;;;;5088442;28;20601;-81
2021/07/02 11:23:21;;;;;;;9.15;6.30;;;;;23.80;101643.00;;;;5088466;28;20221;-80
2021/07/02 11:26:04;;;;;;;9.25;7.00;;;;;24.00;101644.00;;;;5088119;28;20770;-81
2021/07/02 11:28:41;;;;;;;9.90;6.00;;;;;24.00;101640.00;;;;5088732;28;20208;-81
2021/07/02 11:31:09;;;;;;;7.15;5.18;;;;;24.10;101637.00;;;;5088926;28;20620;-80
2021/07/02 11:33:38;;;;;;;7.60;5.45;;;;;24.20;101637.00;;;;5087726;28;20782;-80
2021/07/02 11:36:15;;;;;;;8.85;5.65;;;;;24.20;101645.00;;;;5078616;28;20203;-80
2021/07/02 11:38:50;;;;;;;9.15;6.32;;;;;24.30;101639.00;;;;5083502;28;20973;-81
2021/07/02 11:41:37;;;;;;;8.73;5.80;;;;;24.30;101634.00;;;;5069536;28;20214;-80
2021/07/02 11:44:08;;;;;;;6.75;5.15;;;;;24.50;101641.00;;;;5068666;28;20202;-79
2021/07/02 11:46:36;;;;;;;7.00;4.45;;;;;24.60;101633.00;;;;5071359;28;20207;-79
2021/07/02 11:49:03;;;;;;;7.95;5.60;;;;;24.70;101632.00;;;;5073427;28;20203;-80
2021/07/02 11:51:33;;;;;;;7.32;5.28;;;;;24.80;101633.00;;;;5072596;28;20226;-79
2021/07/02 11:54:02;;;;;;;10.02;4.35;;;;;24.90;101628.00;;;;5076016;28;20244;-79
2021/07/02 11:56:31;;;;;;;6.95;5.05;;;;;25.00;101637.00;;;;5073802;28;20190;-79
2021/07/02 11:59:03;;;;;;;10.68;5.63;;;;;25.10;101631.00;;;;5088755;28;20199;-80
2021/07/02 12:01:37;;;;;;;6.53;4.35;;;;;25.20;101625.00;;;;5081314;28;20671;-80
2021/07/02 12:04:07;;;;;;;7.47;4.80;;;;;25.30;101623.00;;;;5068835;28;20198;-79
2021/07/02 12:06:37;;;;;;;6.88;5.13;;;;;25.40;101629.00;;;;5068222;28;20210;-80
2021/07/02 12:09:08;;;;;;;7.45;5.45;;;;;25.50;101631.00;;;;5068310;28;20194;-80
2021/07/02 12:11:37;;;;;;;7.75;5.05;;;;;25.60;101637.00;;;;5071966;28;20211;-80
2021/07/02 12:14:08;;;;;;;7.45;5.15;;;;;25.60;101635.00;;;;5079703;28;20222;-80
2021/07/02 12:16:37;;;;;;;11.02;5.25;;;;;25.70;101625.00;;;;5071232;28;20203;-80
2021/07/02 12:19:06;;;;;;;7.65;4.57;;;;;25.80;101626.00;;;;5072059;28;20576;-80